Avon, Utah
Current Conditions -  °F | °C
As of 12:55 AM on Monday 24 Nov 2014 (Local Time) from KBMC Reporting Station
Overcast Overcast  
Wind Chill: 29°   Ceiling: 6000
Heat Index: 37°   Visibility: 10mi
Dew Point: 24°   Wind: 10mph
Humidity: 60%   Direction: 200°SSW
Pressure: 30.19"   Gusts: NA
Location:  41.5397°N, 111.856°W
Report Text: KBMC 240755Z AUTO 20009KT 10SM BKN060 OVC070 03/M04 A3019 RMK AO1 T00261044
Loading
Personal Weather Stations






























Interactive Weather Map New forecast layout! Learn more

10-Day Weather Forecast

Advertisements
Track Severe Weather on mobile